Timiskaming Regional Airport
CYXR : now visible

Airfield :











YOU CAN JOIN US ON...

 
LOGIN :

Register | Disclaimer

   EN    FR    IT 

 









Legend :    VFR   Marginal VFR   IFR   Intensive IFR   Very Intensive IFR
Visi :
Ceiling :
>= 8 km
>= 3000ft
5 to 8 km
1000 to 3000 ft
1500m to 5 km
500 to 1000 ft
800 to 1500m
200 to 500 ft
< 800m
< 200 ft
Symbols :   Thunderstorms  Fog  Heavy snow  Heavy precipitations  Wind > 20 kt






- Airport Elevation : 798 ft
- IATA code : YXR


CYXR - Timiskaming Regional

CURRENT METAR :
  • 212305Z AUTO 34013G18KT 6SM -RA BR BKN009 OVC014 02/01 A2983 RMK SLP114

EXPIRED METARs :
  • 212255Z AUTO 33012G18KT 5SM -RA BR BKN009 OVC014 02/01 A2983 RMK SLP113
  • 212240Z AUTO 33013G18KT 5SM -RA BR BKN009 OVC015 02/01 A2982 RMK SLP111
  • 212233Z AUTO 33012G20KT 6SM -RA BR BKN009 OVC014 02/01 A2982 RMK SLP110
  • 212218Z AUTO 35011G17KT 8SM BKN011 BKN017 OVC022 03/02 A2981 RMK SLP107
  • 212208Z AUTO 34011G16KT 9SM -RA BKN011 OVC017 03/02 A2981 RMK SLP106
  • 212149Z AUTO 35012KT 7SM -RA BKN013 BKN019 OVC025 03/02 A2980 RMK SLP104
  • 212101Z AUTO 34012KT 9SM SCT013 BKN023 BKN029 OVC040 03/02 A2979 RMK SLP099
  • 212054Z AUTO 34011G16KT 8SM FEW005 SCT013 BKN025 OVC040 04/03 A2979 RMK SLP099
  • 212041Z AUTO 34013KT 9SM SCT007 BKN015 BKN027 OVC040 03/02 A2978 RMK SLP098
  • 212036Z AUTO 34012KT 6SM -RA BR SCT007 BKN010 BKN017 OVC028 03/02 A2978 RMK SLP098
  • 212019Z AUTO 35009KT 1 3/4SM -RA BR BKN007 OVC014 03/03 A2978 RMK SLP097

TAF AMD TAF CYXR
Valid from the 21 at 19:00 until the 22 at 00:00 UTC


211917Z 2119/2124 34008KT 21/2SM -RASN BR OVC007
TEMPO 2119/2121 P6SM NSW SCT007 OVC015
FM212100 34010KT 21/2SM -DZ BR OVC006
TEMPO 2121/2124 P6SM NSW OVC010
PROB30 2122/2124 21/2SM -FZDZ BR RMK FCST BASED ON AUTO OBS. NXT FCST WILL BE ISSUED AT 221145Z
CZYZ FIR / North America



MET'MAP, your aeronautical weather chart ! - Copyright ORBIFLY December 2007 - Disclaimer

ORBIFLY MET'MAP TEAM :

Programming & Development : Alexandra Zaïnal
Concept & original design : Baudouin d'Aumeries
Assistance for programming : Marc-Olivier Méhu
Technical & hardware support : Manuel Goepfert

Contact : metmap@orbifly.com




SOURCES & CREDITS :

   NOAA       Earth
Advisory